KBIX

Keesler Air Force Base

Airport
ICAO code
KBIX
IATA Code
BIX
Summary
ICAO Region
NAM
ICAO Territory
Location

Biloxi, Mississippi

Serving
Biloxi
Elevation
33 ft
Coordinates
30° 24' 41" N , 88° 55' 13" W
KCC
Metar
KBIX 222055Z AUTO 17011KT 10SM FEW027 29/19 A2993 RMK AO2 SLP138 T02880194 55015

Keesler Air Force Base is a United States Air Force installation located in Biloxi, a city in Harrison County, Mississippi, USA.

Airport map

Aerial View

SKYbrary Partners:

Safety knowledge contributed by: